Dubuque, Iowa
Current Conditions -  °F | °C
As of 10:53 AM on Friday 24 Oct 2014 (Local Time) from KDBQ Reporting Station
Moderate Fog Moderate Fog  
Wind Chill: 52°   Ceiling: 100
Heat Index: 52°   Visibility: 0.25mi
Dew Point: 52°   Wind: 13mph
Humidity: 100%   Direction: 190°S
Pressure: 30.04"   Gusts: NA
Location:  42.5°N, 90.66°W
Report Text: KDBQ 241553Z 19011KT 1/4SM R36/1200FT FG VV001 11/11 A3004 RMK AO2 SLP174 T01110111
Loading
Personal Weather Stations






























Interactive Weather Map
Tropical Storm Tracking
New forecast layout! Learn more

10-Day Weather Forecast

Advertisements
Track Severe Weather on mobile